createdAt,value
2022-09-23T00:01:19.923Z,10.06
2022-09-23T00:04:30.473Z,10.03
2022-09-23T00:07:38.637Z,10.00
2022-09-23T00:10:45.994Z,10.00
2022-09-23T00:13:54.184Z,9.99
2022-09-23T00:17:02.450Z,9.94
2022-09-23T00:20:09.716Z,9.88
2022-09-23T00:23:17.726Z,9.82
2022-09-23T00:26:25.940Z,9.79
2022-09-23T00:29:33.318Z,9.76
2022-09-23T00:32:41.468Z,9.76
2022-09-23T00:35:49.304Z,9.73
2022-09-23T00:38:57.046Z,9.70
2022-09-23T00:42:05.150Z,9.66
2022-09-23T00:45:12.971Z,9.63
2022-09-23T00:48:20.850Z,9.57
2022-09-23T00:51:28.773Z,9.53
2022-09-23T00:54:36.697Z,9.50
2022-09-23T00:57:44.943Z,9.46
2022-09-23T01:00:52.845Z,9.45
2022-09-23T01:04:00.676Z,9.43
2022-09-23T01:07:08.615Z,9.42
2022-09-23T01:10:16.414Z,9.39
2022-09-23T01:13:23.997Z,9.32
2022-09-23T01:16:32.105Z,9.27
2022-09-23T01:19:39.708Z,9.24
2022-09-23T01:22:47.566Z,9.20
2022-09-23T01:25:55.289Z,9.10
2022-09-23T01:29:03.411Z,9.01
2022-09-23T01:32:11.211Z,8.90
2022-09-23T01:35:19.134Z,8.84
2022-09-23T01:38:27.504Z,8.73
2022-09-23T01:41:34.959Z,8.71
2022-09-23T01:44:43.229Z,8.69
2022-09-23T01:47:51.355Z,8.73
2022-09-23T01:50:58.786Z,8.76
2022-09-23T01:54:06.898Z,8.78
2022-09-23T01:57:14.872Z,8.78
2022-09-23T02:00:22.274Z,8.73
2022-09-23T02:03:30.435Z,8.66
2022-09-23T02:06:38.263Z,8.63
2022-09-23T02:09:46.097Z,8.62
2022-09-23T02:12:54.377Z,8.60
2022-09-23T02:16:02.128Z,8.63
2022-09-23T02:19:10.028Z,8.60
2022-09-23T02:22:18.173Z,8.60
2022-09-23T02:25:26.108Z,8.54
2022-09-23T02:28:33.990Z,8.53
2022-09-23T02:31:42.271Z,8.45
2022-09-23T02:34:50.132Z,8.42
2022-09-23T02:37:57.992Z,8.37
2022-09-23T02:41:05.810Z,8.33
2022-09-23T02:44:14.129Z,8.29
2022-09-23T02:47:21.933Z,8.25
2022-09-23T02:50:29.734Z,8.20
2022-09-23T02:53:37.837Z,8.17
2022-09-23T02:56:45.608Z,8.12
2022-09-23T02:59:53.476Z,8.14
2022-09-23T03:03:01.605Z,8.12
2022-09-23T03:06:09.081Z,8.08
2022-09-23T03:09:17.340Z,8.14
2022-09-23T03:12:25.347Z,8.18
2022-09-23T03:15:32.779Z,8.21
2022-09-23T03:18:41.129Z,8.20
2022-09-23T03:21:48.929Z,8.20
2022-09-23T03:24:56.761Z,8.21
2022-09-23T03:28:04.861Z,8.28
2022-09-23T03:31:12.901Z,8.26
2022-09-23T03:34:20.701Z,8.28
2022-09-23T03:37:29.100Z,8.25
2022-09-23T03:40:37.096Z,8.22
2022-09-23T03:43:45.115Z,8.21
2022-09-23T03:46:52.948Z,8.25
2022-09-23T03:50:01.151Z,8.21
2022-09-23T03:53:09.106Z,8.20
2022-09-23T03:56:16.946Z,8.20
2022-09-23T03:59:25.006Z,8.21
2022-09-23T04:02:32.934Z,8.22
2022-09-23T04:05:40.348Z,8.21
2022-09-23T04:08:48.638Z,8.18
2022-09-23T04:11:56.098Z,8.18
2022-09-23T04:15:04.241Z,8.15
2022-09-23T04:18:12.511Z,8.15
2022-09-23T04:21:19.894Z,8.12
2022-09-23T04:24:27.799Z,8.14
2022-09-23T04:27:37.929Z,8.12
2022-09-23T04:30:45.412Z,8.12
2022-09-23T04:33:53.518Z,8.15
2022-09-23T04:37:01.773Z,8.12
2022-09-23T04:40:09.069Z,8.15
2022-09-23T04:43:17.234Z,8.18
2022-09-23T04:46:25.080Z,8.25
2022-09-23T04:49:32.986Z,8.22
2022-09-23T04:52:41.147Z,8.22
2022-09-23T04:55:48.806Z,8.25
2022-09-23T04:58:56.496Z,8.20
2022-09-23T05:02:04.534Z,8.21
2022-09-23T05:05:11.855Z,8.21
2022-09-23T05:08:19.648Z,8.26
2022-09-23T05:11:27.248Z,8.29
2022-09-23T05:14:34.981Z,8.30
2022-09-23T05:17:43.221Z,8.33
2022-09-23T05:20:51.041Z,8.33
2022-09-23T05:23:58.771Z,8.37
2022-09-23T05:27:06.532Z,8.44
2022-09-23T05:30:14.549Z,8.48
2022-09-23T05:33:22.577Z,8.51
2022-09-23T05:36:34.310Z,8.58
2022-09-23T05:39:33.604Z,8.65
2022-09-23T05:42:41.424Z,8.66
2022-09-23T05:45:49.104Z,8.69
2022-09-23T05:49:01.789Z,8.78
2022-09-23T05:51:59.346Z,8.83
2022-09-23T05:55:07.569Z,8.88
2022-09-23T05:58:15.750Z,8.93
2022-09-23T06:01:23.081Z,8.99
2022-09-23T06:04:31.351Z,9.05
2022-09-23T06:07:39.158Z,9.12
2022-09-23T06:10:47.918Z,9.21
2022-09-23T06:13:48.130Z,9.30
2022-09-23T06:16:55.941Z,9.39
2022-09-23T06:20:03.672Z,9.48
2022-09-23T06:23:11.772Z,9.61
2022-09-23T06:26:19.273Z,9.73
2022-09-23T06:29:27.444Z,9.83
2022-09-23T06:32:35.524Z,10.00
2022-09-23T06:35:52.140Z,10.15
2022-09-23T06:38:48.430Z,10.28
2022-09-23T06:41:56.090Z,10.43
2022-09-23T06:45:03.850Z,10.56
2022-09-23T06:48:12.278Z,10.66
2022-09-23T06:51:20.159Z,10.78
2022-09-23T06:54:28.068Z,10.91
2022-09-23T06:57:35.919Z,10.99
2022-09-23T07:00:44.030Z,11.10
2022-09-23T07:03:51.870Z,11.20
2022-09-23T07:06:59.571Z,11.32
2022-09-23T07:10:07.800Z,11.41
2022-09-23T07:13:16.384Z,11.56
2022-09-23T07:16:24.728Z,11.68
2022-09-23T07:19:32.702Z,11.82
2022-09-23T07:22:40.225Z,11.99
2022-09-23T07:25:49.114Z,12.08
2022-09-23T07:28:57.306Z,12.20
2022-09-23T07:32:13.131Z,12.31
2022-09-23T07:35:10.008Z,12.45
2022-09-23T07:38:17.409Z,12.60
2022-09-23T07:41:25.771Z,12.74
2022-09-23T07:44:33.969Z,12.85
2022-09-23T07:47:41.295Z,12.88
2022-09-23T07:50:49.581Z,12.92
2022-09-23T07:53:57.564Z,12.92
2022-09-23T07:57:05.114Z,12.85
2022-09-23T08:00:13.226Z,12.79
2022-09-23T08:03:21.190Z,12.81
2022-09-23T08:06:29.176Z,12.82
2022-09-23T08:09:37.025Z,12.92
2022-09-23T08:12:45.566Z,13.00
2022-09-23T08:15:55.670Z,13.07
2022-09-23T08:22:14.450Z,13.30
2022-09-23T08:25:22.780Z,13.43
2022-09-23T08:28:30.941Z,13.61
2022-09-23T08:31:38.351Z,13.77
2022-09-23T08:34:46.643Z,13.89
2022-09-23T08:37:54.374Z,14.01
2022-09-23T08:41:02.275Z,14.07
2022-09-23T08:44:12.056Z,14.13
2022-09-23T08:47:19.967Z,14.19
2022-09-23T08:50:27.869Z,14.25
2022-09-23T08:53:37.129Z,14.31
2022-09-23T08:56:45.040Z,14.34
2022-09-23T08:59:52.769Z,14.39
2022-09-23T09:03:00.829Z,14.54
2022-09-23T09:06:08.503Z,14.72
2022-09-23T09:09:16.549Z,14.93
2022-09-23T09:12:24.314Z,15.13
2022-09-23T09:15:32.226Z,15.36
2022-09-23T09:18:40.374Z,15.48
2022-09-23T09:21:48.257Z,15.59
2022-09-23T09:24:56.114Z,15.67
2022-09-23T09:28:04.015Z,15.68
2022-09-23T09:31:12.030Z,15.66
2022-09-23T09:34:19.709Z,15.67
2022-09-23T09:37:27.629Z,15.70
2022-09-23T09:40:35.822Z,15.81
2022-09-23T09:43:44.369Z,15.96
2022-09-23T09:46:52.308Z,16.11
2022-09-23T09:50:00.513Z,16.25
2022-09-23T09:53:07.871Z,16.30
2022-09-23T09:56:15.969Z,16.41
2022-09-23T09:59:24.219Z,16.45
2022-09-23T10:02:31.836Z,16.53
2022-09-23T10:05:39.989Z,16.63
2022-09-23T10:08:47.921Z,16.73
2022-09-23T10:11:55.250Z,16.74
2022-09-23T10:15:03.606Z,16.77
2022-09-23T10:18:10.972Z,16.85
2022-09-23T10:21:19.011Z,16.92
2022-09-23T10:24:27.193Z,16.99
2022-09-23T10:27:34.659Z,17.11
2022-09-23T10:30:42.892Z,17.30
2022-09-23T10:33:51.178Z,17.43
2022-09-23T10:36:58.669Z,17.63
2022-09-23T10:40:06.983Z,17.71
2022-09-23T10:43:14.773Z,17.78
2022-09-23T10:46:22.631Z,17.92
2022-09-23T10:49:22.851Z,18.07
2022-09-23T10:52:30.775Z,18.22
2022-09-23T10:55:38.554Z,18.29
2022-09-23T10:58:46.288Z,18.40
2022-09-23T11:01:54.382Z,18.43
2022-09-23T11:05:02.277Z,18.43
2022-09-23T11:08:10.022Z,18.44
2022-09-23T11:11:18.324Z,18.55
2022-09-23T11:14:26.129Z,18.64
2022-09-23T11:17:34.009Z,18.72
2022-09-23T11:20:41.862Z,18.82
2022-09-23T11:23:49.654Z,18.87
2022-09-23T11:26:57.727Z,18.83
2022-09-23T11:30:05.318Z,18.82
2022-09-23T11:33:13.029Z,18.92
2022-09-23T11:36:21.208Z,18.94
2022-09-23T11:39:29.055Z,18.86
2022-09-23T11:42:37.021Z,18.80
2022-09-23T11:45:45.187Z,19.08
2022-09-23T11:48:53.047Z,19.28
2022-09-23T11:52:00.890Z,19.33
2022-09-23T11:55:20.181Z,19.31
2022-09-23T11:58:23.655Z,19.40
2022-09-23T12:01:29.051Z,19.46
2022-09-23T12:04:25.679Z,19.43
2022-09-23T12:07:33.316Z,19.38
2022-09-23T12:10:41.560Z,19.18
2022-09-23T12:13:49.121Z,18.98
2022-09-23T12:16:57.572Z,18.72
2022-09-23T12:20:05.842Z,18.65
2022-09-23T12:23:13.328Z,18.62
2022-09-23T12:26:21.615Z,18.64
2022-09-23T12:32:37.100Z,18.84
2022-09-23T12:35:45.291Z,18.87
2022-09-23T12:38:53.172Z,18.94
2022-09-23T12:42:01.055Z,19.18
2022-09-23T12:45:08.935Z,19.47
2022-09-23T12:48:16.676Z,19.70
2022-09-23T12:51:24.420Z,19.84
2022-09-23T12:54:32.079Z,19.91
2022-09-23T12:57:40.009Z,19.87
2022-09-23T13:00:47.377Z,19.70
2022-09-23T13:03:55.363Z,19.86
2022-09-23T13:07:03.164Z,20.03
2022-09-23T13:10:11.527Z,20.02
2022-09-23T13:13:19.298Z,19.97
2022-09-23T13:16:27.073Z,19.80
2022-09-23T13:19:38.709Z,19.68
2022-09-23T13:22:36.521Z,19.78
2022-09-23T13:25:44.335Z,19.95
2022-09-23T13:28:52.123Z,20.08
2022-09-23T13:32:00.521Z,20.13
2022-09-23T13:35:08.407Z,20.18
2022-09-23T13:38:16.319Z,20.15
2022-09-23T13:41:24.036Z,20.12
2022-09-23T13:44:31.514Z,19.93
2022-09-23T13:47:39.852Z,19.80
2022-09-23T13:50:47.211Z,19.76
2022-09-23T13:53:54.896Z,19.80
2022-09-23T13:57:02.929Z,19.79
2022-09-23T14:00:11.058Z,19.65
2022-09-23T14:03:19.079Z,19.50
2022-09-23T14:06:27.660Z,19.47
2022-09-23T14:09:35.422Z,19.58
2022-09-23T14:12:43.784Z,19.57
2022-09-23T14:15:52.216Z,19.58
2022-09-23T14:19:00.296Z,19.63
2022-09-23T14:22:12.289Z,19.63
2022-09-23T14:25:09.670Z,19.66
2022-09-23T14:28:17.869Z,19.60
2022-09-23T14:31:26.342Z,19.55
2022-09-23T14:34:34.256Z,19.43
2022-09-23T14:37:42.338Z,19.35
2022-09-23T14:40:50.278Z,19.28
2022-09-23T14:43:58.588Z,19.21
2022-09-23T14:47:11.613Z,19.21
2022-09-23T14:50:09.582Z,19.20
2022-09-23T14:53:17.835Z,19.28
2022-09-23T14:56:25.654Z,19.28
2022-09-23T14:59:33.660Z,19.31
2022-09-23T15:02:42.249Z,19.29
2022-09-23T15:05:50.129Z,19.15
2022-09-23T15:08:58.764Z,19.02
2022-09-23T15:12:07.312Z,18.86
2022-09-23T15:15:14.945Z,18.74
2022-09-23T15:18:23.225Z,18.64
2022-09-23T15:21:31.696Z,18.58
2022-09-23T15:24:39.237Z,18.49
2022-09-23T15:27:47.790Z,18.43
2022-09-23T15:30:55.489Z,18.36
2022-09-23T15:34:04.202Z,18.28
2022-09-23T15:37:12.483Z,18.24
2022-09-23T15:40:20.100Z,18.15
2022-09-23T15:43:28.576Z,18.10
2022-09-23T15:46:37.137Z,18.06
2022-09-23T15:49:44.638Z,18.00
2022-09-23T15:52:52.953Z,17.89
2022-09-23T15:56:01.068Z,17.76
2022-09-23T15:59:09.008Z,17.64
2022-09-23T16:02:17.259Z,17.53
2022-09-23T16:05:25.185Z,17.35
2022-09-23T16:08:33.466Z,17.22
2022-09-23T16:11:41.807Z,17.10
2022-09-23T16:14:49.585Z,16.92
2022-09-23T16:17:57.769Z,16.80
2022-09-23T16:21:05.182Z,16.63
2022-09-23T16:24:13.443Z,16.55
2022-09-23T16:27:21.273Z,16.45
2022-09-23T16:30:29.161Z,16.33
2022-09-23T16:33:37.015Z,16.16
2022-09-23T16:36:44.784Z,16.07
2022-09-23T16:39:52.765Z,15.96
2022-09-23T16:43:01.020Z,15.84
2022-09-23T16:46:08.638Z,15.76
2022-09-23T16:49:16.633Z,15.70
2022-09-23T16:52:24.521Z,15.63
2022-09-23T16:55:32.254Z,15.51
2022-09-23T16:58:40.576Z,15.43
2022-09-23T17:01:48.521Z,15.38
2022-09-23T17:04:55.897Z,15.27
2022-09-23T17:08:03.767Z,15.23
2022-09-23T17:11:11.818Z,15.19
2022-09-23T17:14:19.966Z,15.11
2022-09-23T17:17:28.631Z,14.99
2022-09-23T17:20:36.769Z,14.95
2022-09-23T17:23:44.441Z,14.95
2022-09-23T17:26:53.509Z,14.91
2022-09-23T17:30:01.652Z,14.86
2022-09-23T17:33:09.285Z,14.80
2022-09-23T17:36:16.676Z,14.68
2022-09-23T17:39:25.115Z,14.62
2022-09-23T17:42:33.108Z,14.54
2022-09-23T17:45:40.719Z,14.52
2022-09-23T17:48:48.509Z,14.49
2022-09-23T17:51:56.485Z,14.43
2022-09-23T17:55:04.410Z,14.37
2022-09-23T17:58:12.358Z,14.31
2022-09-23T18:01:20.545Z,14.27
2022-09-23T18:04:28.481Z,14.21
2022-09-23T18:07:36.184Z,14.19
2022-09-23T18:10:44.055Z,14.16
2022-09-23T18:13:52.480Z,14.14
2022-09-23T18:16:59.924Z,14.16
2022-09-23T18:20:07.602Z,14.12
2022-09-23T18:23:15.770Z,14.09
2022-09-23T18:26:23.632Z,14.07
2022-09-23T18:29:31.564Z,14.09
2022-09-23T18:32:39.985Z,14.07
2022-09-23T18:35:47.474Z,14.06
2022-09-23T18:38:54.972Z,14.09
2022-09-23T18:42:03.164Z,14.04
2022-09-23T18:45:10.656Z,13.95
2022-09-23T18:48:18.567Z,13.91
2022-09-23T18:51:26.628Z,13.91
2022-09-23T18:54:34.287Z,13.94
2022-09-23T18:57:42.930Z,13.94
2022-09-23T19:00:51.011Z,13.88
2022-09-23T19:03:59.130Z,13.81
2022-09-23T19:07:07.269Z,13.81
2022-09-23T19:10:14.609Z,13.83
2022-09-23T19:13:22.762Z,13.83
2022-09-23T19:16:31.002Z,13.80
2022-09-23T19:19:38.495Z,13.80
2022-09-23T19:22:46.596Z,13.70
2022-09-23T19:25:54.766Z,13.62
2022-09-23T19:29:02.230Z,13.58
2022-09-23T19:32:10.695Z,13.58
2022-09-23T19:35:18.028Z,13.59
2022-09-23T19:38:26.190Z,13.58
2022-09-23T19:41:34.330Z,13.52
2022-09-23T19:44:41.742Z,13.52
2022-09-23T19:47:49.951Z,13.51
2022-09-23T19:50:58.064Z,13.52
2022-09-23T19:54:05.406Z,13.49
2022-09-23T19:57:13.511Z,13.47
2022-09-23T20:00:21.237Z,13.54
2022-09-23T20:03:28.957Z,13.55
2022-09-23T20:06:37.235Z,13.55
2022-09-23T20:09:45.049Z,13.51
2022-09-23T20:12:52.948Z,13.51
2022-09-23T20:16:01.034Z,13.52
2022-09-23T20:19:08.393Z,13.49
2022-09-23T20:22:16.550Z,13.49
2022-09-23T20:25:24.401Z,13.46
2022-09-23T20:28:32.022Z,13.43
2022-09-23T20:31:40.620Z,13.37
2022-09-23T20:34:48.653Z,13.30
2022-09-23T20:37:56.513Z,13.32
2022-09-23T20:41:04.418Z,13.32
2022-09-23T20:44:12.774Z,13.36
2022-09-23T20:47:20.862Z,13.38
2022-09-23T20:50:28.318Z,13.40
2022-09-23T20:53:36.336Z,13.40
2022-09-23T20:56:44.032Z,13.43
2022-09-23T20:59:51.889Z,13.41
2022-09-23T21:02:59.883Z,13.36
2022-09-23T21:06:07.550Z,13.29
2022-09-23T21:09:15.391Z,13.25
2022-09-23T21:12:23.193Z,13.30
2022-09-23T21:15:30.535Z,13.33
2022-09-23T21:18:37.977Z,13.32
2022-09-23T21:21:46.195Z,13.37
2022-09-23T21:25:26.413Z,13.33
2022-09-23T21:27:58.766Z,13.27
2022-09-23T21:31:07.055Z,13.29
2022-09-23T21:34:14.366Z,13.27
2022-09-23T21:37:22.515Z,13.32
2022-09-23T21:40:30.369Z,13.33
2022-09-23T21:43:38.181Z,13.37
2022-09-23T21:46:46.326Z,13.37
2022-09-23T21:49:53.980Z,13.38
2022-09-23T21:53:01.785Z,13.37
2022-09-23T21:56:09.745Z,13.33
2022-09-23T21:59:17.104Z,13.30
2022-09-23T22:02:24.976Z,13.29
2022-09-23T22:05:32.376Z,13.32
2022-09-23T22:08:40.008Z,13.33
2022-09-23T22:11:47.778Z,13.29
2022-09-23T22:14:55.548Z,13.30
2022-09-23T22:18:03.227Z,13.30
2022-09-23T22:21:11.569Z,13.36
2022-09-23T22:24:19.212Z,13.40
2022-09-23T22:27:27.031Z,13.40
2022-09-23T22:30:34.904Z,13.43
2022-09-23T22:33:43.105Z,13.44
2022-09-23T22:36:50.822Z,13.46
2022-09-23T22:39:58.676Z,13.51
2022-09-23T22:43:06.742Z,13.54
2022-09-23T22:46:14.162Z,13.54
2022-09-23T22:49:22.114Z,13.54
2022-09-23T22:52:29.937Z,13.54
2022-09-23T22:55:37.359Z,13.55
2022-09-23T22:58:45.376Z,13.52
2022-09-23T23:01:53.124Z,13.47
2022-09-23T23:05:00.476Z,13.44
2022-09-23T23:08:08.611Z,13.44
2022-09-23T23:11:16.433Z,13.49
2022-09-23T23:14:24.594Z,13.44
2022-09-23T23:17:32.509Z,13.44
2022-09-23T23:20:40.159Z,13.41
2022-09-23T23:23:47.959Z,13.41
2022-09-23T23:26:56.141Z,13.44
2022-09-23T23:30:03.886Z,13.40
2022-09-23T23:33:11.480Z,13.41
2022-09-23T23:36:19.786Z,13.30
2022-09-23T23:39:27.647Z,13.25
2022-09-23T23:42:35.629Z,13.22
2022-09-23T23:45:43.433Z,13.12
2022-09-23T23:48:51.053Z,13.04
2022-09-23T23:51:58.802Z,13.02
2022-09-23T23:55:06.643Z,12.95
2022-09-23T23:58:14.896Z,12.88
